createdAt,value
2023-02-07T00:00:49.701Z,-0.87
2023-02-07T00:03:16.508Z,-1.27
2023-02-07T00:05:43.169Z,-1.16
2023-02-07T00:08:09.833Z,-1.36
2023-02-07T00:10:36.582Z,-0.79
2023-02-07T00:13:06.004Z,-0.61
2023-02-07T00:15:32.966Z,-0.64
2023-02-07T00:17:59.474Z,-0.45
2023-02-07T00:20:26.019Z,-0.36
2023-02-07T00:22:52.648Z,-0.36
2023-02-07T00:25:19.209Z,-0.39
2023-02-07T00:27:45.900Z,0.10
2023-02-07T00:30:13.012Z,-0.25
2023-02-07T00:32:39.656Z,0.47
2023-02-07T00:35:06.982Z,0.50
2023-02-07T00:37:34.365Z,0.56
2023-02-07T00:40:00.955Z,0.61
2023-02-07T00:42:27.498Z,0.64
2023-02-07T00:44:54.120Z,0.79
2023-02-07T00:47:20.733Z,0.87
2023-02-07T00:49:47.412Z,0.48
2023-02-07T00:52:14.060Z,0.51
2023-02-07T00:54:40.569Z,0.36
2023-02-07T00:57:07.117Z,0.57
2023-02-07T00:59:33.769Z,0.50
2023-02-07T01:02:00.306Z,0.28
2023-02-07T01:04:27.004Z,0.22
2023-02-07T01:06:53.569Z,0.25
2023-02-07T01:09:20.164Z,0.30
2023-02-07T01:11:46.797Z,-0.39
2023-02-07T01:14:13.384Z,-0.37
2023-02-07T01:16:39.907Z,0.19
2023-02-07T01:19:09.349Z,-0.43
2023-02-07T01:21:36.120Z,-0.16
2023-02-07T01:24:05.318Z,-0.11
2023-02-07T01:26:35.073Z,-0.07
2023-02-07T01:29:02.496Z,-0.27
2023-02-07T01:31:29.610Z,-0.39
2023-02-07T01:33:59.015Z,-0.96
2023-02-07T01:36:28.024Z,-0.54
2023-02-07T01:38:55.514Z,-0.78
2023-02-07T01:41:24.381Z,-0.74
2023-02-07T01:43:57.178Z,-0.75
2023-02-07T01:46:24.414Z,-0.94
2023-02-07T01:48:52.923Z,-1.52
2023-02-07T01:51:20.115Z,-1.89
2023-02-07T01:53:47.307Z,-1.67
2023-02-07T01:56:29.631Z,-1.16
2023-02-07T01:59:00.074Z,-1.38
2023-02-07T02:01:26.797Z,-1.26
2023-02-07T02:03:57.008Z,-1.23
2023-02-07T02:06:28.177Z,-1.47
2023-02-07T02:08:57.252Z,-1.88
2023-02-07T02:11:42.625Z,-1.28
2023-02-07T02:14:21.167Z,-1.29
2023-02-07T02:17:23.200Z,-1.37
2023-02-07T02:19:55.783Z,-1.46
2023-02-07T02:22:41.264Z,-1.42
2023-02-07T02:25:41.976Z,-1.43
2023-02-07T02:28:43.744Z,-1.52
2023-02-07T02:31:38.847Z,-1.85
2023-02-07T02:34:31.579Z,-2.39
2023-02-07T02:37:23.179Z,-2.00
2023-02-07T02:40:08.895Z,-2.25
2023-02-07T02:42:53.193Z,-1.98
2023-02-07T02:45:39.224Z,-1.75
2023-02-07T02:48:10.350Z,-1.80
2023-02-07T02:50:37.899Z,-1.88
2023-02-07T02:53:04.680Z,-2.05
2023-02-07T02:55:45.400Z,-1.60
2023-02-07T02:58:31.213Z,-1.58
2023-02-07T03:01:36.785Z,-1.59
2023-02-07T03:04:38.416Z,-1.93
2023-02-07T03:07:24.675Z,-1.61
2023-02-07T03:10:14.887Z,-1.99
2023-02-07T03:12:57.157Z,-1.58
2023-02-07T03:15:45.347Z,-1.56
2023-02-07T03:18:20.683Z,-1.94
2023-02-07T03:21:01.490Z,-2.23
2023-02-07T03:23:29.468Z,-1.82
2023-02-07T03:25:59.861Z,-1.55
2023-02-07T03:28:29.886Z,-1.66
2023-02-07T03:31:00.645Z,-1.78
2023-02-07T03:33:28.710Z,-2.14
2023-02-07T03:36:10.368Z,-2.06
2023-02-07T03:38:38.414Z,-1.53
2023-02-07T03:41:20.902Z,-1.67
2023-02-07T03:43:48.936Z,-1.66
2023-02-07T03:46:15.607Z,-1.66
2023-02-07T03:48:42.845Z,-1.49
2023-02-07T03:51:09.335Z,-1.80
2023-02-07T03:53:35.877Z,-2.24
2023-02-07T03:56:02.480Z,-2.22
2023-02-07T03:58:29.085Z,-1.68
2023-02-07T04:00:56.537Z,-1.73
2023-02-07T04:03:23.086Z,-1.70
2023-02-07T04:05:49.752Z,-1.43
2023-02-07T04:08:16.405Z,-1.47
2023-02-07T04:10:43.279Z,-1.42
2023-02-07T04:13:09.841Z,-1.40
2023-02-07T04:15:36.894Z,-1.54
2023-02-07T04:18:04.102Z,-1.28
2023-02-07T04:20:30.721Z,-1.51
2023-02-07T04:22:57.283Z,-1.40
2023-02-07T04:25:23.890Z,-1.48
2023-02-07T04:27:51.299Z,-1.80
2023-02-07T04:30:17.958Z,-1.61
2023-02-07T04:32:44.443Z,-1.39
2023-02-07T04:35:11.041Z,-1.64
2023-02-07T04:37:37.636Z,-1.62
2023-02-07T04:40:04.563Z,-1.81
2023-02-07T04:42:31.173Z,-1.50
2023-02-07T04:44:57.794Z,-1.97
2023-02-07T04:47:24.388Z,-1.60
2023-02-07T04:49:50.925Z,-1.59
2023-02-07T04:52:17.575Z,-1.96
2023-02-07T04:54:44.075Z,-2.08
2023-02-07T04:57:10.687Z,-1.48
2023-02-07T04:59:37.344Z,-2.11
2023-02-07T05:02:04.000Z,-2.17
2023-02-07T05:04:30.643Z,-1.59
2023-02-07T05:06:57.201Z,-1.41
2023-02-07T05:09:23.821Z,-1.65
2023-02-07T05:11:50.506Z,-2.21
2023-02-07T05:14:17.168Z,-1.74
2023-02-07T05:16:43.902Z,-1.60
2023-02-07T05:19:10.536Z,-1.58
2023-02-07T05:21:37.098Z,-1.65
2023-02-07T05:24:04.203Z,-1.78
2023-02-07T05:26:30.812Z,-1.81
2023-02-07T05:28:57.451Z,-1.81
2023-02-07T05:31:44.067Z,-1.87
2023-02-07T05:34:10.783Z,-1.73
2023-02-07T05:36:37.295Z,-1.92
2023-02-07T05:39:04.607Z,-2.15
2023-02-07T05:41:31.131Z,-2.13
2023-02-07T05:43:57.721Z,-2.00
2023-02-07T05:46:24.288Z,-2.05
2023-02-07T05:48:50.966Z,-1.95
2023-02-07T05:51:17.697Z,-1.94
2023-02-07T05:53:44.302Z,-2.20
2023-02-07T05:56:10.855Z,-2.76
2023-02-07T05:58:37.421Z,-2.69
2023-02-07T06:01:04.094Z,-2.20
2023-02-07T06:03:30.782Z,-2.98
2023-02-07T06:05:57.386Z,-2.70
2023-02-07T06:08:23.939Z,-2.97
2023-02-07T06:10:50.535Z,-2.58
2023-02-07T06:13:17.142Z,-2.61
2023-02-07T06:15:43.731Z,-2.40
2023-02-07T06:18:10.325Z,-2.63
2023-02-07T06:20:36.845Z,-2.68
2023-02-07T06:23:03.467Z,-3.21
2023-02-07T06:25:30.078Z,-2.64
2023-02-07T06:27:56.779Z,-2.60
2023-02-07T06:30:23.934Z,-2.81
2023-02-07T06:32:50.462Z,-3.18
2023-02-07T06:35:17.092Z,-2.83
2023-02-07T06:37:43.699Z,-3.29
2023-02-07T06:40:10.775Z,-2.84
2023-02-07T06:42:37.373Z,-2.98
2023-02-07T06:45:04.594Z,-3.42
2023-02-07T06:47:31.132Z,-3.12
2023-02-07T06:49:57.646Z,-3.64
2023-02-07T06:52:24.179Z,-2.90
2023-02-07T06:54:50.716Z,-2.98
2023-02-07T06:57:17.265Z,-3.55
2023-02-07T06:59:43.792Z,-3.04
2023-02-07T07:02:14.429Z,-3.48
2023-02-07T07:04:41.025Z,-3.42
2023-02-07T07:07:07.613Z,-3.22
2023-02-07T07:09:34.368Z,-3.25
2023-02-07T07:12:00.890Z,-3.60
2023-02-07T07:14:27.478Z,-3.32
2023-02-07T07:16:56.817Z,-3.41
2023-02-07T07:19:23.798Z,-3.07
2023-02-07T07:21:50.391Z,-3.07
2023-02-07T07:24:16.929Z,-3.23
2023-02-07T07:26:49.833Z,-3.70
2023-02-07T07:29:18.034Z,-3.14
2023-02-07T07:31:45.487Z,-3.03
2023-02-07T07:34:12.732Z,-3.28
2023-02-07T07:36:39.330Z,-4.00
2023-02-07T07:39:07.140Z,-3.43
2023-02-07T07:41:33.737Z,-3.43
2023-02-07T07:44:00.593Z,-2.44
2023-02-07T07:46:27.285Z,-2.89
2023-02-07T07:48:53.843Z,-1.97
2023-02-07T07:51:20.444Z,-2.23
2023-02-07T07:53:47.037Z,-1.49
2023-02-07T07:56:13.564Z,-1.59
2023-02-07T07:58:40.132Z,-2.39
2023-02-07T08:01:06.794Z,-1.75
2023-02-07T08:03:33.413Z,-1.21
2023-02-07T08:06:00.009Z,-0.96
2023-02-07T08:08:26.657Z,-0.40
2023-02-07T08:10:53.268Z,0.16
2023-02-07T08:13:20.169Z,0.51
2023-02-07T08:15:47.560Z,0.99
2023-02-07T08:18:14.278Z,1.28
2023-02-07T08:20:41.335Z,1.45
2023-02-07T08:23:08.012Z,2.32
2023-02-07T08:25:34.612Z,2.48
2023-02-07T08:28:03.349Z,2.80
2023-02-07T08:30:31.049Z,2.98
2023-02-07T08:32:57.635Z,3.10
2023-02-07T08:35:24.309Z,3.40
2023-02-07T08:37:50.931Z,3.66
2023-02-07T08:40:17.797Z,3.91
2023-02-07T08:42:44.695Z,4.50
2023-02-07T08:45:11.969Z,4.21
2023-02-07T08:47:38.613Z,4.16
2023-02-07T08:50:06.394Z,4.23
2023-02-07T08:52:32.982Z,3.80
2023-02-07T08:54:59.610Z,3.72
2023-02-07T08:57:26.657Z,3.68
2023-02-07T08:59:53.763Z,3.97
2023-02-07T09:02:20.761Z,3.98
2023-02-07T09:04:47.550Z,4.44
2023-02-07T09:07:14.392Z,4.90
2023-02-07T09:09:41.174Z,5.24
2023-02-07T09:12:08.340Z,5.49
2023-02-07T09:14:35.500Z,6.34
2023-02-07T09:17:02.341Z,7.00
2023-02-07T09:19:28.958Z,7.18
2023-02-07T09:21:55.635Z,7.49
2023-02-07T09:24:23.620Z,7.53
2023-02-07T09:26:50.202Z,8.02
2023-02-07T09:29:17.090Z,8.63
2023-02-07T09:31:44.564Z,8.66
2023-02-07T09:34:11.279Z,8.99
2023-02-07T09:36:38.197Z,9.28
2023-02-07T09:39:06.709Z,9.35
2023-02-07T09:41:42.189Z,9.57
2023-02-07T09:44:57.350Z,9.44
2023-02-07T09:47:25.635Z,9.52
2023-02-07T09:49:58.256Z,9.45
2023-02-07T09:52:24.747Z,9.86
2023-02-07T09:54:54.271Z,9.98
2023-02-07T09:57:26.702Z,10.07
2023-02-07T10:00:04.653Z,10.27
2023-02-07T10:02:41.706Z,10.41
2023-02-07T10:05:20.586Z,10.26
2023-02-07T10:07:49.195Z,10.40
2023-02-07T10:10:32.371Z,10.49
2023-02-07T10:13:02.231Z,10.56
2023-02-07T10:16:01.539Z,10.72
2023-02-07T10:18:56.323Z,10.21
2023-02-07T10:21:27.386Z,9.57
2023-02-07T10:24:23.598Z,9.89
2023-02-07T10:26:58.100Z,10.17
2023-02-07T10:29:51.044Z,10.35
2023-02-07T10:32:26.740Z,10.33
2023-02-07T10:35:01.925Z,11.04
2023-02-07T10:37:31.562Z,11.55
2023-02-07T10:40:08.036Z,11.92
2023-02-07T10:42:37.808Z,11.94
2023-02-07T10:45:05.508Z,12.19
2023-02-07T10:47:38.772Z,11.94
2023-02-07T10:50:16.030Z,12.10
2023-02-07T10:53:05.474Z,12.39
2023-02-07T10:55:40.083Z,11.90
2023-02-07T10:58:21.191Z,12.27
2023-02-07T11:00:51.851Z,12.29
2023-02-07T11:03:21.667Z,12.54
2023-02-07T11:05:54.317Z,11.99
2023-02-07T11:08:22.942Z,12.65
2023-02-07T11:10:52.656Z,13.06
2023-02-07T11:13:28.059Z,13.15
2023-02-07T11:16:00.028Z,13.54
2023-02-07T11:18:37.434Z,13.81
2023-02-07T11:21:29.049Z,14.20
2023-02-07T11:24:01.283Z,14.17
2023-02-07T11:26:29.520Z,14.57
2023-02-07T11:29:07.977Z,14.62
2023-02-07T11:31:37.213Z,14.30
2023-02-07T11:34:26.552Z,14.39
2023-02-07T11:36:53.360Z,14.57
2023-02-07T11:39:23.035Z,14.95
2023-02-07T11:41:58.289Z,14.86
2023-02-07T11:44:29.616Z,14.90
2023-02-07T11:47:02.849Z,14.96
2023-02-07T11:49:43.030Z,15.85
2023-02-07T11:52:10.178Z,16.17
2023-02-07T11:54:39.953Z,15.60
2023-02-07T11:57:14.624Z,14.67
2023-02-07T12:00:06.509Z,14.31
2023-02-07T12:02:40.030Z,14.72
2023-02-07T12:05:20.726Z,15.75
2023-02-07T12:07:56.595Z,16.00
2023-02-07T12:10:34.041Z,15.47
2023-02-07T12:13:18.508Z,15.15
2023-02-07T12:15:52.820Z,14.89
2023-02-07T12:18:31.460Z,15.16
2023-02-07T12:21:04.895Z,16.49
2023-02-07T12:23:42.662Z,16.32
2023-02-07T12:26:29.346Z,15.96
2023-02-07T12:29:25.722Z,17.12
2023-02-07T12:32:24.465Z,17.43
2023-02-07T12:35:33.754Z,17.18
2023-02-07T12:38:25.059Z,15.14
2023-02-07T12:40:59.423Z,13.25
2023-02-07T12:43:35.895Z,11.29
2023-02-07T12:46:02.671Z,10.32
2023-02-07T12:48:53.533Z,10.00
2023-02-07T12:51:27.549Z,10.75
2023-02-07T12:54:08.139Z,13.25
2023-02-07T12:56:42.787Z,15.39
2023-02-07T12:59:22.172Z,16.77
2023-02-07T13:02:03.477Z,17.34
2023-02-07T13:04:39.099Z,17.93
2023-02-07T13:07:21.835Z,16.62
2023-02-07T13:09:48.355Z,16.86
2023-02-07T13:12:42.616Z,17.97
2023-02-07T13:15:34.894Z,18.27
2023-02-07T13:18:30.780Z,16.65
2023-02-07T13:21:05.372Z,15.61
2023-02-07T13:23:34.285Z,15.55
2023-02-07T13:26:06.112Z,15.99
2023-02-07T13:28:45.249Z,16.42
2023-02-07T13:31:18.143Z,16.74
2023-02-07T13:33:48.639Z,16.96
2023-02-07T13:36:18.147Z,17.35
2023-02-07T13:38:56.754Z,17.82
2023-02-07T13:41:34.587Z,16.97
2023-02-07T13:44:35.162Z,17.43
2023-02-07T13:47:30.913Z,17.10
2023-02-07T13:50:15.371Z,16.04
2023-02-07T13:52:57.716Z,14.40
2023-02-07T13:55:27.257Z,13.54
2023-02-07T13:58:12.431Z,12.38
2023-02-07T14:00:48.088Z,12.23
2023-02-07T14:03:31.696Z,11.83
2023-02-07T14:06:21.861Z,11.20
2023-02-07T14:09:01.378Z,10.93
2023-02-07T14:11:38.851Z,11.51
2023-02-07T14:14:14.237Z,11.92
2023-02-07T14:16:56.446Z,10.88
2023-02-07T14:19:41.496Z,10.51
2023-02-07T14:22:43.262Z,10.34
2023-02-07T14:25:09.889Z,9.93
2023-02-07T14:27:42.375Z,9.02
2023-02-07T14:30:11.923Z,8.35
2023-02-07T14:33:08.774Z,8.11
2023-02-07T14:35:57.051Z,8.44
2023-02-07T14:38:40.165Z,9.23
2023-02-07T14:41:11.806Z,10.38
2023-02-07T14:44:08.654Z,10.34
2023-02-07T14:46:42.565Z,9.86
2023-02-07T14:49:20.862Z,10.02
2023-02-07T14:51:51.211Z,10.13
2023-02-07T14:54:20.145Z,10.49
2023-02-07T14:56:55.418Z,11.77
2023-02-07T14:59:44.578Z,12.36
2023-02-07T15:02:32.521Z,12.87
2023-02-07T15:05:16.582Z,13.93
2023-02-07T15:07:44.033Z,13.50
2023-02-07T15:10:22.877Z,12.67
2023-02-07T15:12:52.818Z,11.28
2023-02-07T15:15:52.507Z,10.42
2023-02-07T15:18:21.933Z,9.63
2023-02-07T15:20:52.050Z,8.69
2023-02-07T15:23:19.514Z,8.12
2023-02-07T15:25:46.877Z,7.53
2023-02-07T15:28:27.436Z,7.23
2023-02-07T15:31:11.241Z,6.59
2023-02-07T15:33:46.367Z,5.80
2023-02-07T15:36:32.919Z,6.04
2023-02-07T15:39:01.334Z,5.63
2023-02-07T15:41:28.581Z,4.72
2023-02-07T15:44:03.709Z,5.43
2023-02-07T15:46:53.593Z,5.08
2023-02-07T15:49:33.958Z,5.11
2023-02-07T15:52:05.663Z,4.86
2023-02-07T15:54:39.420Z,4.83
2023-02-07T15:57:12.500Z,4.77
2023-02-07T15:59:41.281Z,4.52
2023-02-07T16:02:22.642Z,3.90
2023-02-07T16:04:49.395Z,4.31
2023-02-07T16:07:19.766Z,4.03
2023-02-07T16:09:47.337Z,3.97
2023-02-07T16:12:50.431Z,3.98
2023-02-07T16:15:32.114Z,3.40
2023-02-07T16:18:00.181Z,3.62
2023-02-07T16:20:29.118Z,3.56
2023-02-07T16:22:59.986Z,3.04
2023-02-07T16:25:29.822Z,3.32
2023-02-07T16:27:56.679Z,3.14
2023-02-07T16:30:33.447Z,2.41
2023-02-07T16:33:07.379Z,2.78
2023-02-07T16:35:34.101Z,2.64
2023-02-07T16:38:00.859Z,2.64
2023-02-07T16:40:27.478Z,2.16
2023-02-07T16:42:56.034Z,1.84
2023-02-07T16:45:27.821Z,1.92
2023-02-07T16:47:56.402Z,1.45
2023-02-07T16:50:25.772Z,1.16
2023-02-07T16:52:54.693Z,1.61
2023-02-07T16:55:21.337Z,1.44
2023-02-07T16:57:49.286Z,0.84
2023-02-07T17:00:22.136Z,1.08
2023-02-07T17:02:50.398Z,0.91
2023-02-07T17:05:22.312Z,0.90
2023-02-07T17:07:50.387Z,0.70
2023-02-07T17:10:22.452Z,0.70
2023-02-07T17:12:49.186Z,0.63
2023-02-07T17:15:15.866Z,-0.24
2023-02-07T17:17:42.517Z,0.37
2023-02-07T17:20:32.744Z,-0.21
2023-02-07T17:22:59.779Z,-0.47
2023-02-07T17:25:29.938Z,-0.43
2023-02-07T17:27:57.465Z,-0.66
2023-02-07T17:30:27.556Z,-0.83
2023-02-07T17:32:55.610Z,-0.20
2023-02-07T17:35:22.789Z,-0.23
2023-02-07T17:37:49.422Z,-0.44
2023-02-07T17:40:23.400Z,-0.28
2023-02-07T17:42:50.195Z,-0.68
2023-02-07T17:45:17.285Z,-0.62
2023-02-07T17:47:44.526Z,-1.10
2023-02-07T17:50:17.729Z,-1.38
2023-02-07T17:52:44.489Z,-0.76
2023-02-07T17:55:11.233Z,-0.66
2023-02-07T17:57:41.305Z,-1.51
2023-02-07T18:00:29.808Z,-0.71
2023-02-07T18:02:56.829Z,-0.76
2023-02-07T18:05:23.919Z,-1.72
2023-02-07T18:07:52.030Z,-0.94
2023-02-07T18:10:30.446Z,-1.10
2023-02-07T18:12:57.819Z,-1.11
2023-02-07T18:15:25.753Z,-2.10
2023-02-07T18:17:53.642Z,-1.97
2023-02-07T18:20:22.295Z,-1.12
2023-02-07T18:22:50.080Z,-1.14
2023-02-07T18:25:16.939Z,-1.97
2023-02-07T18:27:46.364Z,-1.17
2023-02-07T18:30:14.014Z,-1.82
2023-02-07T18:32:41.150Z,-1.27
2023-02-07T18:35:08.480Z,-1.52
2023-02-07T18:37:35.522Z,-2.07
2023-02-07T18:40:02.264Z,-1.59
2023-02-07T18:42:30.732Z,-1.49
2023-02-07T18:44:57.726Z,-1.53
2023-02-07T18:47:24.442Z,-1.57
2023-02-07T18:49:51.047Z,-1.38
2023-02-07T18:52:17.832Z,-1.68
2023-02-07T18:54:47.244Z,-2.06
2023-02-07T18:57:13.933Z,-1.55
2023-02-07T18:59:40.742Z,-1.65
2023-02-07T19:02:07.983Z,-2.25
2023-02-07T19:04:34.892Z,-1.60
2023-02-07T19:07:02.218Z,-1.64
2023-02-07T19:09:28.937Z,-1.51
2023-02-07T19:11:57.456Z,-1.38
2023-02-07T19:14:30.877Z,-1.62
2023-02-07T19:16:58.405Z,-1.43
2023-02-07T19:19:31.818Z,-1.74
2023-02-07T19:21:58.679Z,-1.77
2023-02-07T19:24:26.298Z,-2.22
2023-02-07T19:26:58.177Z,-1.84
2023-02-07T19:29:30.547Z,-1.78
2023-02-07T19:32:02.689Z,-1.77
2023-02-07T19:34:30.178Z,-1.87
2023-02-07T19:36:56.998Z,-1.86
2023-02-07T19:39:23.880Z,-1.91
2023-02-07T19:41:50.484Z,-2.33
2023-02-07T19:44:17.265Z,-1.81
2023-02-07T19:46:44.539Z,-1.64
2023-02-07T19:49:12.628Z,-1.81
2023-02-07T19:51:40.227Z,-1.90
2023-02-07T19:54:06.868Z,-1.66
2023-02-07T19:56:34.009Z,-2.03
2023-02-07T19:59:04.312Z,-1.76
2023-02-07T20:01:33.144Z,-2.41
2023-02-07T20:04:00.657Z,-2.59
2023-02-07T20:06:32.818Z,-2.63
2023-02-07T20:09:01.692Z,-2.11
2023-02-07T20:11:28.720Z,-2.02
2023-02-07T20:13:58.310Z,-2.08
2023-02-07T20:16:26.135Z,-2.22
2023-02-07T20:18:53.256Z,-2.37
2023-02-07T20:21:23.891Z,-2.17
2023-02-07T20:23:51.863Z,-2.29
2023-02-07T20:26:31.581Z,-2.24
2023-02-07T20:29:03.855Z,-2.17
2023-02-07T20:31:31.869Z,-2.15
2023-02-07T20:33:59.677Z,-2.16
2023-02-07T20:36:28.065Z,-2.30
2023-02-07T20:38:57.315Z,-3.01
2023-02-07T20:41:31.335Z,-3.03
2023-02-07T20:44:04.567Z,-2.23
2023-02-07T20:46:36.128Z,-2.44
2023-02-07T20:49:27.185Z,-2.15
2023-02-07T20:51:55.391Z,-2.33
2023-02-07T20:54:25.178Z,-2.43
2023-02-07T20:56:53.212Z,-2.38
2023-02-07T20:59:23.148Z,-2.76
2023-02-07T21:01:49.947Z,-2.32
2023-02-07T21:04:16.650Z,-3.14
2023-02-07T21:06:44.801Z,-2.83
2023-02-07T21:09:12.763Z,-2.34
2023-02-07T21:11:48.152Z,-2.29
2023-02-07T21:14:22.301Z,-2.82
2023-02-07T21:16:49.224Z,-2.87
2023-02-07T21:19:18.984Z,-2.42
2023-02-07T21:21:46.910Z,-2.19
2023-02-07T21:24:15.614Z,-2.43
2023-02-07T21:26:43.585Z,-2.36
2023-02-07T21:29:11.772Z,-2.81
2023-02-07T21:31:38.565Z,-2.93
2023-02-07T21:34:05.868Z,-2.75
2023-02-07T21:36:34.937Z,-2.77
2023-02-07T21:39:10.415Z,-2.19
2023-02-07T21:41:39.433Z,-2.24
2023-02-07T21:44:06.761Z,-2.75
2023-02-07T21:46:36.793Z,-2.22
2023-02-07T21:49:06.163Z,-2.24
2023-02-07T21:51:34.753Z,-2.31
2023-02-07T21:54:03.284Z,-2.19
2023-02-07T21:56:32.057Z,-2.84
2023-02-07T21:59:01.975Z,-2.69
2023-02-07T22:01:30.209Z,-2.77
2023-02-07T22:04:00.131Z,-2.83
2023-02-07T22:06:28.228Z,-2.76
2023-02-07T22:08:57.339Z,-3.01
2023-02-07T22:11:25.809Z,-2.22
2023-02-07T22:13:53.494Z,-2.22
2023-02-07T22:16:23.147Z,-2.96
2023-02-07T22:18:52.084Z,-3.05
2023-02-07T22:21:23.924Z,-2.30
2023-02-07T22:23:51.494Z,-2.98
2023-02-07T22:26:18.917Z,-2.33
2023-02-07T22:28:46.464Z,-2.22
2023-02-07T22:31:32.971Z,-2.46
2023-02-07T22:34:05.696Z,-2.69
2023-02-07T22:36:33.479Z,-2.15
2023-02-07T22:39:01.359Z,-2.90
2023-02-07T22:41:28.642Z,-2.35
2023-02-07T22:43:55.685Z,-2.36
2023-02-07T22:46:24.509Z,-2.91
2023-02-07T22:48:52.388Z,-2.82
2023-02-07T22:51:24.480Z,-2.96
2023-02-07T22:53:54.845Z,-2.53
2023-02-07T22:56:22.050Z,-2.44
2023-02-07T22:58:49.390Z,-3.41
2023-02-07T23:01:20.750Z,-2.55
2023-02-07T23:03:47.562Z,-3.08
2023-02-07T23:06:14.606Z,-2.30
2023-02-07T23:08:41.274Z,-2.83
2023-02-07T23:11:09.730Z,-2.41
2023-02-07T23:13:36.464Z,-2.35
2023-02-07T23:16:03.663Z,-2.22
2023-02-07T23:18:30.234Z,-2.35
2023-02-07T23:20:56.895Z,-2.18
2023-02-07T23:23:23.852Z,-2.32
2023-02-07T23:25:50.388Z,-2.43
2023-02-07T23:28:17.045Z,-2.38
2023-02-07T23:30:43.996Z,-2.59
2023-02-07T23:33:10.854Z,-2.75
2023-02-07T23:35:37.482Z,-2.58
2023-02-07T23:38:04.428Z,-2.63
2023-02-07T23:40:31.245Z,-2.60
2023-02-07T23:42:57.810Z,-2.57
2023-02-07T23:45:25.137Z,-2.71
2023-02-07T23:47:51.840Z,-2.93
2023-02-07T23:50:18.536Z,-2.24
2023-02-07T23:52:45.766Z,-2.17
2023-02-07T23:55:12.561Z,-2.23
2023-02-07T23:57:39.199Z,-2.17
